sensor_id;sensor_type;location;lat;lon;timestamp;temperature;humidity
53926;DHT22;39836;52.754;6.866;2023-04-25T00:01:46;6.30;81.80
53926;DHT22;39836;52.754;6.866;2023-04-25T00:04:12;6.30;81.80
53926;DHT22;39836;52.754;6.866;2023-04-25T00:06:38;6.20;81.70
53926;DHT22;39836;52.754;6.866;2023-04-25T00:09:04;6.20;81.80
53926;DHT22;39836;52.754;6.866;2023-04-25T00:11:33;6.20;81.90
53926;DHT22;39836;52.754;6.866;2023-04-25T00:13:59;6.20;81.90
53926;DHT22;39836;52.754;6.866;2023-04-25T00:16:27;6.30;82.00
53926;DHT22;39836;52.754;6.866;2023-04-25T00:18:54;6.20;81.90
53926;DHT22;39836;52.754;6.866;2023-04-25T00:21:20;6.20;81.90
53926;DHT22;39836;52.754;6.866;2023-04-25T00:23:46;6.20;81.90
53926;DHT22;39836;52.754;6.866;2023-04-25T00:26:12;6.30;81.90
53926;DHT22;39836;52.754;6.866;2023-04-25T00:28:39;6.20;81.80
53926;DHT22;39836;52.754;6.866;2023-04-25T00:31:05;6.20;81.80
53926;DHT22;39836;52.754;6.866;2023-04-25T00:33:31;6.10;81.80
53926;DHT22;39836;52.754;6.866;2023-04-25T00:35:56;6.10;81.80
53926;DHT22;39836;52.754;6.866;2023-04-25T00:38:22;6.10;81.70
53926;DHT22;39836;52.754;6.866;2023-04-25T00:40:48;6.00;81.70
53926;DHT22;39836;52.754;6.866;2023-04-25T00:43:13;5.90;81.70
53926;DHT22;39836;52.754;6.866;2023-04-25T00:45:40;5.90;81.70
53926;DHT22;39836;52.754;6.866;2023-04-25T00:48:05;5.80;81.70
53926;DHT22;39836;52.754;6.866;2023-04-25T00:50:33;5.80;81.70
53926;DHT22;39836;52.754;6.866;2023-04-25T00:53:00;5.80;81.80
53926;DHT22;39836;52.754;6.866;2023-04-25T00:55:26;5.70;81.70
53926;DHT22;39836;52.754;6.866;2023-04-25T00:57:52;5.70;81.70
53926;DHT22;39836;52.754;6.866;2023-04-25T01:00:18;5.60;81.80
53926;DHT22;39836;52.754;6.866;2023-04-25T01:02:45;5.60;81.80
53926;DHT22;39836;52.754;6.866;2023-04-25T01:05:11;5.60;81.80
53926;DHT22;39836;52.754;6.866;2023-04-25T01:07:38;5.60;81.90
53926;DHT22;39836;52.754;6.866;2023-04-25T01:10:04;5.50;81.90
53926;DHT22;39836;52.754;6.866;2023-04-25T01:12:31;5.60;82.00
53926;DHT22;39836;52.754;6.866;2023-04-25T01:14:57;5.60;82.10
53926;DHT22;39836;52.754;6.866;2023-04-25T01:17:23;5.60;82.20
53926;DHT22;39836;52.754;6.866;2023-04-25T01:19:49;5.60;82.30
53926;DHT22;39836;52.754;6.866;2023-04-25T01:22:16;5.70;82.40
53926;DHT22;39836;52.754;6.866;2023-04-25T01:24:43;5.70;82.30
53926;DHT22;39836;52.754;6.866;2023-04-25T01:27:09;5.70;82.10
53926;DHT22;39836;52.754;6.866;2023-04-25T01:29:35;5.70;82.00
53926;DHT22;39836;52.754;6.866;2023-04-25T01:32:01;5.70;81.90
53926;DHT22;39836;52.754;6.866;2023-04-25T01:34:27;5.70;81.70
53926;DHT22;39836;52.754;6.866;2023-04-25T01:36:53;5.60;81.60
53926;DHT22;39836;52.754;6.866;2023-04-25T01:39:19;5.50;81.60
53926;DHT22;39836;52.754;6.866;2023-04-25T01:41:48;5.50;81.60
53926;DHT22;39836;52.754;6.866;2023-04-25T01:44:15;5.50;81.70
53926;DHT22;39836;52.754;6.866;2023-04-25T01:46:40;5.50;81.70
53926;DHT22;39836;52.754;6.866;2023-04-25T01:49:06;5.40;81.70
53926;DHT22;39836;52.754;6.866;2023-04-25T01:51:32;5.40;81.70
53926;DHT22;39836;52.754;6.866;2023-04-25T01:53:58;5.40;81.70
53926;DHT22;39836;52.754;6.866;2023-04-25T01:56:24;5.30;81.70
53926;DHT22;39836;52.754;6.866;2023-04-25T01:58:51;5.30;81.70
53926;DHT22;39836;52.754;6.866;2023-04-25T02:01:16;5.30;81.70
53926;DHT22;39836;52.754;6.866;2023-04-25T02:03:43;5.20;81.80
53926;DHT22;39836;52.754;6.866;2023-04-25T02:06:09;5.20;81.80
53926;DHT22;39836;52.754;6.866;2023-04-25T02:08:34;5.20;81.80
53926;DHT22;39836;52.754;6.866;2023-04-25T02:11:02;5.20;81.80
53926;DHT22;39836;52.754;6.866;2023-04-25T02:13:28;5.20;81.90
53926;DHT22;39836;52.754;6.866;2023-04-25T02:15:54;5.10;81.80
53926;DHT22;39836;52.754;6.866;2023-04-25T02:18:20;5.20;81.90
53926;DHT22;39836;52.754;6.866;2023-04-25T02:20:46;5.20;82.00
53926;DHT22;39836;52.754;6.866;2023-04-25T02:23:12;5.20;82.00
53926;DHT22;39836;52.754;6.866;2023-04-25T02:25:38;5.10;82.00
53926;DHT22;39836;52.754;6.866;2023-04-25T02:28:03;5.20;82.20
53926;DHT22;39836;52.754;6.866;2023-04-25T02:30:29;5.20;82.20
53926;DHT22;39836;52.754;6.866;2023-04-25T02:32:55;5.20;82.20
53926;DHT22;39836;52.754;6.866;2023-04-25T02:35:21;5.30;82.20
53926;DHT22;39836;52.754;6.866;2023-04-25T02:37:47;5.20;82.30
53926;DHT22;39836;52.754;6.866;2023-04-25T02:40:13;5.30;82.20
53926;DHT22;39836;52.754;6.866;2023-04-25T02:42:39;5.30;82.30
53926;DHT22;39836;52.754;6.866;2023-04-25T02:45:05;5.30;82.30
53926;DHT22;39836;52.754;6.866;2023-04-25T02:47:30;5.30;82.30
53926;DHT22;39836;52.754;6.866;2023-04-25T02:49:56;5.30;82.10
53926;DHT22;39836;52.754;6.866;2023-04-25T02:52:22;5.30;82.30
53926;DHT22;39836;52.754;6.866;2023-04-25T02:54:47;5.40;82.30
53926;DHT22;39836;52.754;6.866;2023-04-25T02:57:13;5.40;82.20
53926;DHT22;39836;52.754;6.866;2023-04-25T02:59:39;5.40;82.10
53926;DHT22;39836;52.754;6.866;2023-04-25T03:02:04;5.40;82.10
53926;DHT22;39836;52.754;6.866;2023-04-25T03:04:30;5.30;82.10
53926;DHT22;39836;52.754;6.866;2023-04-25T03:06:56;5.40;81.90
53926;DHT22;39836;52.754;6.866;2023-04-25T03:09:22;5.40;82.00
53926;DHT22;39836;52.754;6.866;2023-04-25T03:11:48;5.30;82.00
53926;DHT22;39836;52.754;6.866;2023-04-25T03:14:13;5.40;82.00
53926;DHT22;39836;52.754;6.866;2023-04-25T03:16:39;5.40;82.00
53926;DHT22;39836;52.754;6.866;2023-04-25T03:19:05;5.40;82.10
53926;DHT22;39836;52.754;6.866;2023-04-25T03:21:32;5.40;82.00
53926;DHT22;39836;52.754;6.866;2023-04-25T03:23:58;5.40;81.70
53926;DHT22;39836;52.754;6.866;2023-04-25T03:26:24;5.40;81.50
53926;DHT22;39836;52.754;6.866;2023-04-25T03:28:50;5.50;81.40
53926;DHT22;39836;52.754;6.866;2023-04-25T03:31:16;5.30;81.30
53926;DHT22;39836;52.754;6.866;2023-04-25T03:33:41;5.30;81.30
53926;DHT22;39836;52.754;6.866;2023-04-25T03:36:07;5.40;81.30
53926;DHT22;39836;52.754;6.866;2023-04-25T03:38:33;5.30;81.10
53926;DHT22;39836;52.754;6.866;2023-04-25T03:40:59;5.30;81.10
53926;DHT22;39836;52.754;6.866;2023-04-25T03:43:24;5.30;81.20
53926;DHT22;39836;52.754;6.866;2023-04-25T03:45:50;5.30;81.10
53926;DHT22;39836;52.754;6.866;2023-04-25T03:48:16;5.30;80.80
53926;DHT22;39836;52.754;6.866;2023-04-25T03:50:42;5.30;80.80
53926;DHT22;39836;52.754;6.866;2023-04-25T03:53:07;5.30;80.70
53926;DHT22;39836;52.754;6.866;2023-04-25T03:55:33;5.30;80.80
53926;DHT22;39836;52.754;6.866;2023-04-25T03:57:59;5.30;80.70
53926;DHT22;39836;52.754;6.866;2023-04-25T04:00:25;5.30;80.60
53926;DHT22;39836;52.754;6.866;2023-04-25T04:02:51;5.30;80.60
53926;DHT22;39836;52.754;6.866;2023-04-25T04:05:16;5.30;80.50
53926;DHT22;39836;52.754;6.866;2023-04-25T04:07:42;5.30;80.50
53926;DHT22;39836;52.754;6.866;2023-04-25T04:10:12;5.30;80.40
53926;DHT22;39836;52.754;6.866;2023-04-25T04:12:38;5.30;80.30
53926;DHT22;39836;52.754;6.866;2023-04-25T04:15:07;5.30;80.10
53926;DHT22;39836;52.754;6.866;2023-04-25T04:17:33;5.20;79.90
53926;DHT22;39836;52.754;6.866;2023-04-25T04:19:59;5.20;79.90
53926;DHT22;39836;52.754;6.866;2023-04-25T04:22:25;5.20;79.60
53926;DHT22;39836;52.754;6.866;2023-04-25T04:24:51;5.20;79.60
53926;DHT22;39836;52.754;6.866;2023-04-25T04:27:20;5.20;79.70
53926;DHT22;39836;52.754;6.866;2023-04-25T04:29:46;5.20;79.20
53926;DHT22;39836;52.754;6.866;2023-04-25T04:32:14;5.10;78.70
53926;DHT22;39836;52.754;6.866;2023-04-25T04:34:40;5.20;78.80
53926;DHT22;39836;52.754;6.866;2023-04-25T04:37:06;5.10;78.60
53926;DHT22;39836;52.754;6.866;2023-04-25T04:39:33;5.10;78.70
53926;DHT22;39836;52.754;6.866;2023-04-25T04:41:59;5.10;78.50
53926;DHT22;39836;52.754;6.866;2023-04-25T04:44:26;5.10;78.50
53926;DHT22;39836;52.754;6.866;2023-04-25T04:46:52;5.10;78.20
53926;DHT22;39836;52.754;6.866;2023-04-25T04:49:18;5.10;78.20
53926;DHT22;39836;52.754;6.866;2023-04-25T04:51:44;5.00;78.30
53926;DHT22;39836;52.754;6.866;2023-04-25T04:54:10;5.10;78.10
53926;DHT22;39836;52.754;6.866;2023-04-25T04:56:35;5.10;78.20
53926;DHT22;39836;52.754;6.866;2023-04-25T04:59:01;5.10;78.40
53926;DHT22;39836;52.754;6.866;2023-04-25T05:01:28;5.10;78.40
53926;DHT22;39836;52.754;6.866;2023-04-25T05:03:55;5.10;78.10
53926;DHT22;39836;52.754;6.866;2023-04-25T05:06:28;5.10;78.10
53926;DHT22;39836;52.754;6.866;2023-04-25T05:08:55;5.10;78.20
53926;DHT22;39836;52.754;6.866;2023-04-25T05:11:22;5.10;78.20
53926;DHT22;39836;52.754;6.866;2023-04-25T05:13:49;5.20;78.20
53926;DHT22;39836;52.754;6.866;2023-04-25T05:16:15;5.20;78.20
53926;DHT22;39836;52.754;6.866;2023-04-25T05:18:40;5.30;78.20
53926;DHT22;39836;52.754;6.866;2023-04-25T05:21:06;5.30;77.80
53926;DHT22;39836;52.754;6.866;2023-04-25T05:23:32;5.30;78.00
53926;DHT22;39836;52.754;6.866;2023-04-25T05:25:59;5.40;77.90
53926;DHT22;39836;52.754;6.866;2023-04-25T05:28:24;5.50;78.10
53926;DHT22;39836;52.754;6.866;2023-04-25T05:30:51;5.40;78.20
53926;DHT22;39836;52.754;6.866;2023-04-25T05:33:16;5.40;77.90
53926;DHT22;39836;52.754;6.866;2023-04-25T05:35:42;5.40;78.00
53926;DHT22;39836;52.754;6.866;2023-04-25T05:38:08;5.50;78.20
53926;DHT22;39836;52.754;6.866;2023-04-25T05:40:33;5.40;78.10
53926;DHT22;39836;52.754;6.866;2023-04-25T05:42:59;5.50;78.30
53926;DHT22;39836;52.754;6.866;2023-04-25T05:45:25;5.30;78.20
53926;DHT22;39836;52.754;6.866;2023-04-25T05:47:50;5.30;77.90
53926;DHT22;39836;52.754;6.866;2023-04-25T05:50:16;5.30;77.90
53926;DHT22;39836;52.754;6.866;2023-04-25T05:52:42;5.30;77.90
53926;DHT22;39836;52.754;6.866;2023-04-25T05:55:08;5.30;77.70
53926;DHT22;39836;52.754;6.866;2023-04-25T05:57:34;5.30;77.80
53926;DHT22;39836;52.754;6.866;2023-04-25T06:00:00;5.30;78.00
53926;DHT22;39836;52.754;6.866;2023-04-25T06:02:26;5.40;78.10
53926;DHT22;39836;52.754;6.866;2023-04-25T06:04:52;5.40;78.20
53926;DHT22;39836;52.754;6.866;2023-04-25T06:07:18;5.40;78.10
53926;DHT22;39836;52.754;6.866;2023-04-25T06:09:45;5.50;78.30
53926;DHT22;39836;52.754;6.866;2023-04-25T06:12:11;5.60;78.40
53926;DHT22;39836;52.754;6.866;2023-04-25T06:14:37;5.70;78.40
53926;DHT22;39836;52.754;6.866;2023-04-25T06:17:03;5.90;78.40
53926;DHT22;39836;52.754;6.866;2023-04-25T06:19:35;6.10;78.50
53926;DHT22;39836;52.754;6.866;2023-04-25T06:22:02;6.20;78.20
53926;DHT22;39836;52.754;6.866;2023-04-25T06:24:28;6.20;78.00
53926;DHT22;39836;52.754;6.866;2023-04-25T06:26:54;6.30;77.90
53926;DHT22;39836;52.754;6.866;2023-04-25T06:29:19;6.40;77.50
53926;DHT22;39836;52.754;6.866;2023-04-25T06:31:45;6.40;77.20
53926;DHT22;39836;52.754;6.866;2023-04-25T06:34:11;6.40;77.10
53926;DHT22;39836;52.754;6.866;2023-04-25T06:36:37;6.50;77.00
53926;DHT22;39836;52.754;6.866;2023-04-25T06:39:02;6.40;77.00
53926;DHT22;39836;52.754;6.866;2023-04-25T06:41:28;6.40;77.20
53926;DHT22;39836;52.754;6.866;2023-04-25T06:43:54;6.50;77.10
53926;DHT22;39836;52.754;6.866;2023-04-25T06:46:20;6.60;77.30
53926;DHT22;39836;52.754;6.866;2023-04-25T06:48:45;6.60;77.30
53926;DHT22;39836;52.754;6.866;2023-04-25T06:51:11;6.70;77.60
53926;DHT22;39836;52.754;6.866;2023-04-25T06:53:39;6.70;77.50
53926;DHT22;39836;52.754;6.866;2023-04-25T06:56:05;6.70;77.50
53926;DHT22;39836;52.754;6.866;2023-04-25T06:58:31;6.70;77.20
53926;DHT22;39836;52.754;6.866;2023-04-25T07:00:57;6.60;77.20
53926;DHT22;39836;52.754;6.866;2023-04-25T07:03:22;6.50;77.20
53926;DHT22;39836;52.754;6.866;2023-04-25T07:05:49;6.50;77.10
53926;DHT22;39836;52.754;6.866;2023-04-25T07:08:15;6.50;77.00
53926;DHT22;39836;52.754;6.866;2023-04-25T07:10:41;6.60;76.70
53926;DHT22;39836;52.754;6.866;2023-04-25T07:13:06;6.60;76.40
53926;DHT22;39836;52.754;6.866;2023-04-25T07:15:32;6.70;76.30
53926;DHT22;39836;52.754;6.866;2023-04-25T07:17:58;6.80;76.10
53926;DHT22;39836;52.754;6.866;2023-04-25T07:20:24;6.90;75.90
53926;DHT22;39836;52.754;6.866;2023-04-25T07:22:49;7.10;75.70
53926;DHT22;39836;52.754;6.866;2023-04-25T07:25:16;7.20;75.30
53926;DHT22;39836;52.754;6.866;2023-04-25T07:27:42;7.40;75.70
53926;DHT22;39836;52.754;6.866;2023-04-25T07:30:08;7.50;75.30
53926;DHT22;39836;52.754;6.866;2023-04-25T07:32:34;7.50;74.90
53926;DHT22;39836;52.754;6.866;2023-04-25T07:35:00;7.40;73.80
53926;DHT22;39836;52.754;6.866;2023-04-25T07:37:27;7.40;74.10
53926;DHT22;39836;52.754;6.866;2023-04-25T07:39:52;7.40;74.20
53926;DHT22;39836;52.754;6.866;2023-04-25T07:42:18;7.40;73.90
53926;DHT22;39836;52.754;6.866;2023-04-25T07:44:44;7.50;73.80
53926;DHT22;39836;52.754;6.866;2023-04-25T07:47:10;7.60;73.20
53926;DHT22;39836;52.754;6.866;2023-04-25T07:49:37;7.60;74.10
53926;DHT22;39836;52.754;6.866;2023-04-25T07:52:04;7.60;74.30
53926;DHT22;39836;52.754;6.866;2023-04-25T07:54:33;7.60;74.20
53926;DHT22;39836;52.754;6.866;2023-04-25T07:56:58;7.60;73.80
53926;DHT22;39836;52.754;6.866;2023-04-25T07:59:25;7.60;73.80
53926;DHT22;39836;52.754;6.866;2023-04-25T08:01:50;7.60;74.40
53926;DHT22;39836;52.754;6.866;2023-04-25T08:04:16;7.60;74.20
53926;DHT22;39836;52.754;6.866;2023-04-25T08:06:42;7.70;74.30
53926;DHT22;39836;52.754;6.866;2023-04-25T08:09:09;7.70;74.20
53926;DHT22;39836;52.754;6.866;2023-04-25T08:11:35;7.70;74.20
53926;DHT22;39836;52.754;6.866;2023-04-25T08:14:01;7.90;74.30
53926;DHT22;39836;52.754;6.866;2023-04-25T08:16:27;8.10;74.10
53926;DHT22;39836;52.754;6.866;2023-04-25T08:18:53;8.10;73.80
53926;DHT22;39836;52.754;6.866;2023-04-25T08:21:19;8.20;73.70
53926;DHT22;39836;52.754;6.866;2023-04-25T08:23:45;8.20;73.10
53926;DHT22;39836;52.754;6.866;2023-04-25T08:26:11;8.30;72.50
53926;DHT22;39836;52.754;6.866;2023-04-25T08:28:37;8.40;71.50
53926;DHT22;39836;52.754;6.866;2023-04-25T08:31:03;8.60;70.80
53926;DHT22;39836;52.754;6.866;2023-04-25T08:33:29;8.70;71.10
53926;DHT22;39836;52.754;6.866;2023-04-25T08:35:55;8.80;70.70
53926;DHT22;39836;52.754;6.866;2023-04-25T08:38:21;8.90;71.20
53926;DHT22;39836;52.754;6.866;2023-04-25T08:40:49;9.00;70.90
53926;DHT22;39836;52.754;6.866;2023-04-25T08:43:20;8.90;71.00
53926;DHT22;39836;52.754;6.866;2023-04-25T08:45:46;8.80;71.40
53926;DHT22;39836;52.754;6.866;2023-04-25T08:48:14;8.70;71.60
53926;DHT22;39836;52.754;6.866;2023-04-25T08:50:51;8.50;71.80
53926;DHT22;39836;52.754;6.866;2023-04-25T08:53:22;8.40;71.50
53926;DHT22;39836;52.754;6.866;2023-04-25T08:55:50;8.20;71.90
53926;DHT22;39836;52.754;6.866;2023-04-25T08:58:18;8.10;72.40
53926;DHT22;39836;52.754;6.866;2023-04-25T09:00:46;7.90;72.20
53926;DHT22;39836;52.754;6.866;2023-04-25T09:03:12;7.80;72.10
53926;DHT22;39836;52.754;6.866;2023-04-25T09:05:39;7.70;72.20
53926;DHT22;39836;52.754;6.866;2023-04-25T09:08:06;7.80;72.40
53926;DHT22;39836;52.754;6.866;2023-04-25T09:10:32;8.00;72.50
53926;DHT22;39836;52.754;6.866;2023-04-25T09:15:31;8.40;72.70
53926;DHT22;39836;52.754;6.866;2023-04-25T09:17:58;8.60;72.30
53926;DHT22;39836;52.754;6.866;2023-04-25T09:20:24;8.80;72.10
53926;DHT22;39836;52.754;6.866;2023-04-25T09:23:02;9.10;72.40
53926;DHT22;39836;52.754;6.866;2023-04-25T09:25:34;9.20;72.00
53926;DHT22;39836;52.754;6.866;2023-04-25T09:28:04;9.30;70.70
53926;DHT22;39836;52.754;6.866;2023-04-25T09:30:32;9.30;71.10
53926;DHT22;39836;52.754;6.866;2023-04-25T09:33:08;9.40;70.40
53926;DHT22;39836;52.754;6.866;2023-04-25T09:35:47;9.40;70.30
53926;DHT22;39836;52.754;6.866;2023-04-25T09:38:18;9.60;70.60
53926;DHT22;39836;52.754;6.866;2023-04-25T09:40:45;9.80;70.10
53926;DHT22;39836;52.754;6.866;2023-04-25T09:43:24;10.00;70.70
53926;DHT22;39836;52.754;6.866;2023-04-25T09:45:54;10.10;70.50
53926;DHT22;39836;52.754;6.866;2023-04-25T09:48:25;9.90;71.00
53926;DHT22;39836;52.754;6.866;2023-04-25T09:51:11;9.40;70.50
53926;DHT22;39836;52.754;6.866;2023-04-25T09:53:48;8.90;71.10
53926;DHT22;39836;52.754;6.866;2023-04-25T09:56:16;8.50;71.80
53926;DHT22;39836;52.754;6.866;2023-04-25T09:58:42;8.30;72.50
53926;DHT22;39836;52.754;6.866;2023-04-25T10:01:10;8.00;74.80
53926;DHT22;39836;52.754;6.866;2023-04-25T10:03:38;7.50;76.30
53926;DHT22;39836;52.754;6.866;2023-04-25T10:06:09;7.10;77.10
53926;DHT22;39836;52.754;6.866;2023-04-25T10:08:37;6.90;77.90
53926;DHT22;39836;52.754;6.866;2023-04-25T10:11:08;7.00;78.70
53926;DHT22;39836;52.754;6.866;2023-04-25T10:13:35;7.10;78.70
53926;DHT22;39836;52.754;6.866;2023-04-25T10:16:02;7.30;78.70
53926;DHT22;39836;52.754;6.866;2023-04-25T10:18:30;7.40;78.50
53926;DHT22;39836;52.754;6.866;2023-04-25T10:20:57;7.60;78.50
53926;DHT22;39836;52.754;6.866;2023-04-25T10:23:24;7.70;77.90
53926;DHT22;39836;52.754;6.866;2023-04-25T10:25:51;7.90;77.90
53926;DHT22;39836;52.754;6.866;2023-04-25T10:28:18;8.10;78.20
53926;DHT22;39836;52.754;6.866;2023-04-25T10:31:03;8.40;77.50
53926;DHT22;39836;52.754;6.866;2023-04-25T10:33:40;8.80;77.70
53926;DHT22;39836;52.754;6.866;2023-04-25T10:36:14;9.10;77.50
53926;DHT22;39836;52.754;6.866;2023-04-25T10:38:42;9.30;76.90
53926;DHT22;39836;52.754;6.866;2023-04-25T10:41:10;9.60;76.90
53926;DHT22;39836;52.754;6.866;2023-04-25T10:43:43;9.70;75.00
53926;DHT22;39836;52.754;6.866;2023-04-25T10:46:22;9.00;74.90
53926;DHT22;39836;52.754;6.866;2023-04-25T10:48:55;8.30;75.10
53926;DHT22;39836;52.754;6.866;2023-04-25T10:51:34;8.00;75.60
53926;DHT22;39836;52.754;6.866;2023-04-25T10:54:04;7.90;76.40
53926;DHT22;39836;52.754;6.866;2023-04-25T10:56:38;8.00;76.60
53926;DHT22;39836;52.754;6.866;2023-04-25T10:59:19;8.20;75.70
53926;DHT22;39836;52.754;6.866;2023-04-25T11:01:51;8.40;75.00
53926;DHT22;39836;52.754;6.866;2023-04-25T11:04:28;8.50;74.80
53926;DHT22;39836;52.754;6.866;2023-04-25T11:09:38;8.90;75.50
53926;DHT22;39836;52.754;6.866;2023-04-25T11:12:04;9.10;75.00
53926;DHT22;39836;52.754;6.866;2023-04-25T11:14:30;9.00;74.90
53926;DHT22;39836;52.754;6.866;2023-04-25T11:16:57;9.10;75.60
53926;DHT22;39836;52.754;6.866;2023-04-25T11:19:24;9.30;75.70
53926;DHT22;39836;52.754;6.866;2023-04-25T11:21:51;9.40;75.60
53926;DHT22;39836;52.754;6.866;2023-04-25T11:24:21;9.50;75.10
53926;DHT22;39836;52.754;6.866;2023-04-25T11:26:50;9.50;75.40
53926;DHT22;39836;52.754;6.866;2023-04-25T11:29:16;9.40;75.10
53926;DHT22;39836;52.754;6.866;2023-04-25T11:31:44;9.30;75.20
53926;DHT22;39836;52.754;6.866;2023-04-25T11:34:17;9.10;75.90
53926;DHT22;39836;52.754;6.866;2023-04-25T11:36:45;8.90;76.30
53926;DHT22;39836;52.754;6.866;2023-04-25T11:39:11;9.00;76.10
53926;DHT22;39836;52.754;6.866;2023-04-25T11:41:41;9.10;76.10
53926;DHT22;39836;52.754;6.866;2023-04-25T11:44:07;9.30;75.30
53926;DHT22;39836;52.754;6.866;2023-04-25T11:46:36;9.60;75.20
53926;DHT22;39836;52.754;6.866;2023-04-25T11:49:02;9.60;74.80
53926;DHT22;39836;52.754;6.866;2023-04-25T11:51:28;8.90;75.50
53926;DHT22;39836;52.754;6.866;2023-04-25T11:53:53;8.40;75.90
53926;DHT22;39836;52.754;6.866;2023-04-25T11:56:20;8.10;76.70
53926;DHT22;39836;52.754;6.866;2023-04-25T11:59:01;8.00;77.60
53926;DHT22;39836;52.754;6.866;2023-04-25T12:01:34;8.00;78.10
53926;DHT22;39836;52.754;6.866;2023-04-25T12:04:12;8.20;77.90
53926;DHT22;39836;52.754;6.866;2023-04-25T12:06:38;8.60;77.80
53926;DHT22;39836;52.754;6.866;2023-04-25T12:09:08;8.90;76.20
53926;DHT22;39836;52.754;6.866;2023-04-25T12:11:54;9.20;74.10
53926;DHT22;39836;52.754;6.866;2023-04-25T12:14:31;9.30;72.60
53926;DHT22;39836;52.754;6.866;2023-04-25T12:17:03;9.60;72.50
53926;DHT22;39836;52.754;6.866;2023-04-25T12:19:34;9.90;72.00
53926;DHT22;39836;52.754;6.866;2023-04-25T12:22:01;10.10;71.70
53926;DHT22;39836;52.754;6.866;2023-04-25T12:24:28;10.30;71.10
53926;DHT22;39836;52.754;6.866;2023-04-25T12:27:00;10.30;71.00
53926;DHT22;39836;52.754;6.866;2023-04-25T12:29:27;10.50;71.20
53926;DHT22;39836;52.754;6.866;2023-04-25T12:31:54;10.80;71.30
53926;DHT22;39836;52.754;6.866;2023-04-25T12:34:21;11.00;71.30
53926;DHT22;39836;52.754;6.866;2023-04-25T12:36:48;11.20;71.30
53926;DHT22;39836;52.754;6.866;2023-04-25T12:39:22;11.30;70.60
53926;DHT22;39836;52.754;6.866;2023-04-25T12:41:51;11.40;70.90
53926;DHT22;39836;52.754;6.866;2023-04-25T12:44:20;11.60;69.60
53926;DHT22;39836;52.754;6.866;2023-04-25T12:46:47;11.70;69.00
53926;DHT22;39836;52.754;6.866;2023-04-25T12:49:12;11.70;69.60
53926;DHT22;39836;52.754;6.866;2023-04-25T12:51:38;11.60;69.60
53926;DHT22;39836;52.754;6.866;2023-04-25T12:54:05;11.70;69.80
53926;DHT22;39836;52.754;6.866;2023-04-25T12:56:32;12.00;70.00
53926;DHT22;39836;52.754;6.866;2023-04-25T12:58:58;12.30;70.60
53926;DHT22;39836;52.754;6.866;2023-04-25T13:01:24;12.50;68.00
53926;DHT22;39836;52.754;6.866;2023-04-25T13:03:50;12.50;67.80
53926;DHT22;39836;52.754;6.866;2023-04-25T13:06:18;12.60;67.60
53926;DHT22;39836;52.754;6.866;2023-04-25T13:08:44;12.90;67.90
53926;DHT22;39836;52.754;6.866;2023-04-25T13:11:10;12.90;67.70
53926;DHT22;39836;52.754;6.866;2023-04-25T13:13:36;13.00;67.70
53926;DHT22;39836;52.754;6.866;2023-04-25T13:16:03;12.70;68.70
53926;DHT22;39836;52.754;6.866;2023-04-25T13:18:30;12.30;67.30
53926;DHT22;39836;52.754;6.866;2023-04-25T13:20:57;11.90;68.10
53926;DHT22;39836;52.754;6.866;2023-04-25T13:23:23;11.40;68.10
53926;DHT22;39836;52.754;6.866;2023-04-25T13:25:48;11.00;67.80
53926;DHT22;39836;52.754;6.866;2023-04-25T13:28:14;10.60;68.00
53926;DHT22;39836;52.754;6.866;2023-04-25T13:30:40;10.40;68.30
53926;DHT22;39836;52.754;6.866;2023-04-25T13:33:06;10.20;68.20
53926;DHT22;39836;52.754;6.866;2023-04-25T13:35:33;10.30;68.90
53926;DHT22;39836;52.754;6.866;2023-04-25T13:38:00;10.90;68.40
53926;DHT22;39836;52.754;6.866;2023-04-25T13:40:26;11.60;68.60
53926;DHT22;39836;52.754;6.866;2023-04-25T13:42:52;12.30;69.20
53926;DHT22;39836;52.754;6.866;2023-04-25T13:45:19;12.80;68.50
53926;DHT22;39836;52.754;6.866;2023-04-25T13:47:45;12.70;68.30
53926;DHT22;39836;52.754;6.866;2023-04-25T13:50:12;12.40;68.60
53926;DHT22;39836;52.754;6.866;2023-04-25T13:52:39;11.90;68.50
53926;DHT22;39836;52.754;6.866;2023-04-25T13:55:06;11.70;68.80
53926;DHT22;39836;52.754;6.866;2023-04-25T13:57:33;11.60;68.80
53926;DHT22;39836;52.754;6.866;2023-04-25T13:59:59;11.30;67.90
53926;DHT22;39836;52.754;6.866;2023-04-25T14:02:25;11.20;67.90
53926;DHT22;39836;52.754;6.866;2023-04-25T14:04:51;11.30;68.30
53926;DHT22;39836;52.754;6.866;2023-04-25T14:07:18;11.50;68.20
53926;DHT22;39836;52.754;6.866;2023-04-25T14:09:46;12.00;68.00
53926;DHT22;39836;52.754;6.866;2023-04-25T14:12:12;12.80;67.70
53926;DHT22;39836;52.754;6.866;2023-04-25T14:14:38;13.20;68.20
53926;DHT22;39836;52.754;6.866;2023-04-25T14:17:03;13.30;67.70
53926;DHT22;39836;52.754;6.866;2023-04-25T14:19:29;12.90;67.70
53926;DHT22;39836;52.754;6.866;2023-04-25T14:21:55;12.00;69.10
53926;DHT22;39836;52.754;6.866;2023-04-25T14:24:21;11.30;69.80
53926;DHT22;39836;52.754;6.866;2023-04-25T14:26:47;10.90;71.40
53926;DHT22;39836;52.754;6.866;2023-04-25T14:29:13;10.70;71.10
53926;DHT22;39836;52.754;6.866;2023-04-25T14:31:39;11.10;71.80
53926;DHT22;39836;52.754;6.866;2023-04-25T14:34:08;11.90;71.40
53926;DHT22;39836;52.754;6.866;2023-04-25T14:36:35;12.80;71.10
53926;DHT22;39836;52.754;6.866;2023-04-25T14:39:01;13.20;69.90
53926;DHT22;39836;52.754;6.866;2023-04-25T14:41:27;13.00;68.60
53926;DHT22;39836;52.754;6.866;2023-04-25T14:43:52;12.20;69.00
53926;DHT22;39836;52.754;6.866;2023-04-25T14:46:21;12.20;68.90
53926;DHT22;39836;52.754;6.866;2023-04-25T14:48:48;12.60;68.90
53926;DHT22;39836;52.754;6.866;2023-04-25T14:51:14;13.10;68.90
53926;DHT22;39836;52.754;6.866;2023-04-25T14:53:40;13.70;67.90
53926;DHT22;39836;52.754;6.866;2023-04-25T14:56:06;14.00;67.40
53926;DHT22;39836;52.754;6.866;2023-04-25T14:58:33;14.00;67.50
53926;DHT22;39836;52.754;6.866;2023-04-25T15:00:59;14.20;67.30
53926;DHT22;39836;52.754;6.866;2023-04-25T15:03:25;14.30;67.40
53926;DHT22;39836;52.754;6.866;2023-04-25T15:05:51;14.40;67.20
53926;DHT22;39836;52.754;6.866;2023-04-25T15:08:17;14.40;66.50
53926;DHT22;39836;52.754;6.866;2023-04-25T15:10:43;13.80;66.70
53926;DHT22;39836;52.754;6.866;2023-04-25T15:13:10;13.10;66.30
53926;DHT22;39836;52.754;6.866;2023-04-25T15:15:36;12.60;66.20
53926;DHT22;39836;52.754;6.866;2023-04-25T15:18:03;12.20;66.40
53926;DHT22;39836;52.754;6.866;2023-04-25T15:20:52;11.90;66.50
53926;DHT22;39836;52.754;6.866;2023-04-25T15:23:19;11.60;66.40
53926;DHT22;39836;52.754;6.866;2023-04-25T15:25:45;11.40;66.40
53926;DHT22;39836;52.754;6.866;2023-04-25T15:28:11;11.20;66.20
53926;DHT22;39836;52.754;6.866;2023-04-25T15:30:40;11.00;66.20
53926;DHT22;39836;52.754;6.866;2023-04-25T15:33:06;10.90;65.90
53926;DHT22;39836;52.754;6.866;2023-04-25T15:35:31;10.90;66.30
53926;DHT22;39836;52.754;6.866;2023-04-25T15:37:57;10.90;66.20
53926;DHT22;39836;52.754;6.866;2023-04-25T15:40:23;10.80;66.60
53926;DHT22;39836;52.754;6.866;2023-04-25T15:42:50;10.80;66.90
53926;DHT22;39836;52.754;6.866;2023-04-25T15:45:17;10.90;67.30
53926;DHT22;39836;52.754;6.866;2023-04-25T15:47:43;11.10;67.50